sensor_id;sensor_type;location;lat;lon;timestamp;pressure;altitude;pressure_sealevel;temperature;humidity
63194;BME280;49289;51.670;5.624;2022-07-23T00:01:26;101993.44;;;22.87;58.41
63194;BME280;49289;51.670;5.624;2022-07-23T00:03:13;101997.02;;;22.81;58.38
63194;BME280;49289;51.670;5.624;2022-07-23T00:05:00;101998.73;;;22.76;58.50
63194;BME280;49289;51.670;5.624;2022-07-23T00:06:47;101997.11;;;22.72;58.67
63194;BME280;49289;51.670;5.624;2022-07-23T00:08:34;101996.78;;;22.64;59.07
63194;BME280;49289;51.670;5.624;2022-07-23T00:10:21;102010.74;;;22.71;58.88
63194;BME280;49289;51.670;5.624;2022-07-23T00:12:09;101999.92;;;22.68;59.03
63194;BME280;49289;51.670;5.624;2022-07-23T00:13:56;101998.89;;;22.60;59.19
63194;BME280;49289;51.670;5.624;2022-07-23T00:15:43;101996.78;;;22.64;58.83
63194;BME280;49289;51.670;5.624;2022-07-23T00:17:30;102000.08;;;22.52;59.10
63194;BME280;49289;51.670;5.624;2022-07-23T00:19:17;102017.17;;;22.55;59.50
63194;BME280;49289;51.670;5.624;2022-07-23T00:21:04;102013.92;;;22.48;59.35
63194;BME280;49289;51.670;5.624;2022-07-23T00:22:57;101998.09;;;22.40;59.23
63194;BME280;49289;51.670;5.624;2022-07-23T00:24:45;102014.55;;;22.44;59.34
63194;BME280;49289;51.670;5.624;2022-07-23T00:26:34;102010.47;;;22.45;59.07
63194;BME280;49289;51.670;5.624;2022-07-23T00:28:22;102009.64;;;22.41;59.38
63194;BME280;49289;51.670;5.624;2022-07-23T00:30:10;101999.22;;;22.36;59.47
63194;BME280;49289;51.670;5.624;2022-07-23T00:31:58;102000.08;;;22.38;59.35
63194;BME280;49289;51.670;5.624;2022-07-23T00:33:46;102004.72;;;22.26;59.80
63194;BME280;49289;51.670;5.624;2022-07-23T00:35:35;102011.94;;;22.37;59.61
63194;BME280;49289;51.670;5.624;2022-07-23T00:37:23;102007.66;;;22.36;59.57
63194;BME280;49289;51.670;5.624;2022-07-23T00:39:11;102011.43;;;22.36;59.56
63194;BME280;49289;51.670;5.624;2022-07-23T00:40:59;101995.48;;;22.23;59.64
63194;BME280;49289;51.670;5.624;2022-07-23T00:42:47;102009.50;;;22.27;59.51
63194;BME280;49289;51.670;5.624;2022-07-23T00:44:35;101990.23;;;22.19;59.63
63194;BME280;49289;51.670;5.624;2022-07-23T00:46:24;102004.01;;;22.30;59.78
63194;BME280;49289;51.670;5.624;2022-07-23T00:48:09;101995.09;;;22.24;59.55
63194;BME280;49289;51.670;5.624;2022-07-23T00:49:56;101990.65;;;22.19;59.58
63194;BME280;49289;51.670;5.624;2022-07-23T00:51:43;101990.17;;;22.06;59.49
63194;BME280;49289;51.670;5.624;2022-07-23T00:53:30;102002.73;;;22.08;59.85
63194;BME280;49289;51.670;5.624;2022-07-23T00:55:17;102005.72;;;22.13;59.41
63194;BME280;49289;51.670;5.624;2022-07-23T00:57:04;101986.58;;;21.97;59.80
63194;BME280;49289;51.670;5.624;2022-07-23T00:58:51;102003.67;;;22.00;59.73
63194;BME280;49289;51.670;5.624;2022-07-23T01:00:38;101990.62;;;21.85;59.92
63194;BME280;49289;51.670;5.624;2022-07-23T01:02:25;101991.80;;;21.82;59.95
63194;BME280;49289;51.670;5.624;2022-07-23T01:04:12;101985.17;;;21.80;59.91
63194;BME280;49289;51.670;5.624;2022-07-23T01:05:59;101998.97;;;21.84;59.92
63194;BME280;49289;51.670;5.624;2022-07-23T01:07:46;101999.20;;;21.90;59.81
63194;BME280;49289;51.670;5.624;2022-07-23T01:09:33;101999.13;;;21.83;60.27
63194;BME280;49289;51.670;5.624;2022-07-23T01:11:20;101983.33;;;21.73;60.48
63194;BME280;49289;51.670;5.624;2022-07-23T01:13:08;101983.95;;;21.69;60.07
63194;BME280;49289;51.670;5.624;2022-07-23T01:14:59;101981.74;;;21.66;59.96
63194;BME280;49289;51.670;5.624;2022-07-23T01:16:48;101992.45;;;21.74;59.79
63194;BME280;49289;51.670;5.624;2022-07-23T01:18:34;101975.63;;;21.64;59.75
63194;BME280;49289;51.670;5.624;2022-07-23T01:20:21;101976.89;;;21.61;59.79
63194;BME280;49289;51.670;5.624;2022-07-23T01:22:08;101977.91;;;21.56;60.06
63194;BME280;49289;51.670;5.624;2022-07-23T01:23:55;101974.96;;;21.48;60.51
63194;BME280;49289;51.670;5.624;2022-07-23T01:25:42;101978.61;;;21.46;60.47
63194;BME280;49289;51.670;5.624;2022-07-23T01:27:29;101990.85;;;21.62;60.59
63194;BME280;49289;51.670;5.624;2022-07-23T01:29:18;101993.85;;;21.65;60.67
63194;BME280;49289;51.670;5.624;2022-07-23T01:31:05;101986.75;;;21.66;60.61
63194;BME280;49289;51.670;5.624;2022-07-23T01:32:52;101994.44;;;21.62;60.38
63194;BME280;49289;51.670;5.624;2022-07-23T01:34:39;101976.98;;;21.43;60.63
63194;BME280;49289;51.670;5.624;2022-07-23T01:36:26;101992.70;;;21.57;60.50
63194;BME280;49289;51.670;5.624;2022-07-23T01:38:13;101972.41;;;21.44;60.27
63194;BME280;49289;51.670;5.624;2022-07-23T01:40:00;101974.48;;;21.33;60.59
63194;BME280;49289;51.670;5.624;2022-07-23T01:41:47;101974.53;;;21.31;60.75
63194;BME280;49289;51.670;5.624;2022-07-23T01:43:35;101988.91;;;21.38;60.98
63194;BME280;49289;51.670;5.624;2022-07-23T01:45:23;101970.56;;;21.28;60.80
63194;BME280;49289;51.670;5.624;2022-07-23T01:47:11;101984.53;;;21.36;60.96
63194;BME280;49289;51.670;5.624;2022-07-23T01:48:59;101987.95;;;21.35;60.84
63194;BME280;49289;51.670;5.624;2022-07-23T01:50:47;101972.02;;;21.25;60.57
63194;BME280;49289;51.670;5.624;2022-07-23T01:52:36;101990.03;;;21.35;60.44
63194;BME280;49289;51.670;5.624;2022-07-23T01:54:23;101988.98;;;21.18;60.66
63194;BME280;49289;51.670;5.624;2022-07-23T01:56:10;101988.30;;;21.25;60.41
63194;BME280;49289;51.670;5.624;2022-07-23T01:57:59;101970.34;;;21.11;60.42
63194;BME280;49289;51.670;5.624;2022-07-23T01:59:47;101985.94;;;21.16;60.58
63194;BME280;49289;51.670;5.624;2022-07-23T02:01:35;101986.52;;;21.22;60.59
63194;BME280;49289;51.670;5.624;2022-07-23T02:03:23;101976.25;;;21.10;60.50
63194;BME280;49289;51.670;5.624;2022-07-23T02:05:10;101974.61;;;21.06;60.44
63194;BME280;49289;51.670;5.624;2022-07-23T02:06:58;101996.44;;;21.15;60.43
63194;BME280;49289;51.670;5.624;2022-07-23T02:08:46;101994.44;;;21.15;60.62
63194;BME280;49289;51.670;5.624;2022-07-23T02:10:34;101993.52;;;21.20;60.71
63194;BME280;49289;51.670;5.624;2022-07-23T02:12:22;101991.41;;;21.19;60.98
63194;BME280;49289;51.670;5.624;2022-07-23T02:14:11;101991.83;;;21.22;60.81
63194;BME280;49289;51.670;5.624;2022-07-23T02:15:59;101983.88;;;21.17;60.53
63194;BME280;49289;51.670;5.624;2022-07-23T02:17:47;101984.22;;;21.07;60.77
63194;BME280;49289;51.670;5.624;2022-07-23T02:19:35;101979.69;;;21.06;61.04
63194;BME280;49289;51.670;5.624;2022-07-23T02:21:22;101971.91;;;21.01;60.84
63194;BME280;49289;51.670;5.624;2022-07-23T02:23:10;101973.66;;;21.04;60.79
63194;BME280;49289;51.670;5.624;2022-07-23T02:24:57;101979.77;;;21.02;61.01
63194;BME280;49289;51.670;5.624;2022-07-23T02:26:44;101967.58;;;20.90;60.79
63194;BME280;49289;51.670;5.624;2022-07-23T02:28:31;101967.06;;;20.81;61.27
63194;BME280;49289;51.670;5.624;2022-07-23T02:30:19;101963.23;;;20.85;60.89
63194;BME280;49289;51.670;5.624;2022-07-23T02:32:07;101982.70;;;20.87;60.84
63194;BME280;49289;51.670;5.624;2022-07-23T02:33:54;101978.09;;;20.86;61.24
63194;BME280;49289;51.670;5.624;2022-07-23T02:35:41;101964.88;;;20.75;61.14
63194;BME280;49289;51.670;5.624;2022-07-23T02:37:28;101954.89;;;20.76;61.19
63194;BME280;49289;51.670;5.624;2022-07-23T02:39:15;101963.02;;;20.73;61.17
63194;BME280;49289;51.670;5.624;2022-07-23T02:41:02;101960.73;;;20.67;61.53
63194;BME280;49289;51.670;5.624;2022-07-23T02:42:49;101894.64;;;20.21;61.39
63194;BME280;49289;51.670;5.624;2022-07-23T02:44:36;101930.06;;;20.42;60.96
63194;BME280;49289;51.670;5.624;2022-07-23T02:46:23;101965.16;;;20.67;61.46
63194;BME280;49289;51.670;5.624;2022-07-23T02:48:11;101976.72;;;20.84;61.62
63194;BME280;49289;51.670;5.624;2022-07-23T02:49:59;101979.66;;;20.76;61.51
63194;BME280;49289;51.670;5.624;2022-07-23T02:51:47;101989.91;;;20.75;61.21
63194;BME280;49289;51.670;5.624;2022-07-23T02:53:35;101971.37;;;20.61;60.89
63194;BME280;49289;51.670;5.624;2022-07-23T02:55:23;101980.26;;;20.67;60.61
63194;BME280;49289;51.670;5.624;2022-07-23T02:57:11;101992.31;;;20.57;61.18
63194;BME280;49289;51.670;5.624;2022-07-23T02:58:59;101980.06;;;20.47;61.30
63194;BME280;49289;51.670;5.624;2022-07-23T03:00:47;101985.14;;;20.52;61.44
63194;BME280;49289;51.670;5.624;2022-07-23T03:02:36;102000.55;;;20.63;61.51
63194;BME280;49289;51.670;5.624;2022-07-23T03:04:24;101985.86;;;20.59;61.61
63194;BME280;49289;51.670;5.624;2022-07-23T03:06:12;102000.27;;;20.71;61.61
63194;BME280;49289;51.670;5.624;2022-07-23T03:08:00;101982.41;;;20.65;61.53
63194;BME280;49289;51.670;5.624;2022-07-23T03:09:48;101986.63;;;20.47;61.73
63194;BME280;49289;51.670;5.624;2022-07-23T03:11:36;101980.08;;;20.44;61.50
63194;BME280;49289;51.670;5.624;2022-07-23T03:13:24;101997.68;;;20.54;61.66
63194;BME280;49289;51.670;5.624;2022-07-23T03:15:12;101986.06;;;20.43;61.25
63194;BME280;49289;51.670;5.624;2022-07-23T03:16:59;102003.06;;;20.56;61.17
63194;BME280;49289;51.670;5.624;2022-07-23T03:18:46;102001.36;;;20.50;61.41
63194;BME280;49289;51.670;5.624;2022-07-23T03:20:33;101990.88;;;20.36;61.39
63194;BME280;49289;51.670;5.624;2022-07-23T03:22:20;102010.38;;;20.40;61.57
63194;BME280;49289;51.670;5.624;2022-07-23T03:24:08;102008.34;;;20.41;61.69
63194;BME280;49289;51.670;5.624;2022-07-23T03:25:56;101992.75;;;20.34;61.74
63194;BME280;49289;51.670;5.624;2022-07-23T03:27:44;102008.08;;;20.38;61.78
63194;BME280;49289;51.670;5.624;2022-07-23T03:29:32;102010.73;;;20.36;61.44
63194;BME280;49289;51.670;5.624;2022-07-23T03:31:20;101996.39;;;20.32;61.10
63194;BME280;49289;51.670;5.624;2022-07-23T03:33:07;101991.07;;;20.21;61.37
63194;BME280;49289;51.670;5.624;2022-07-23T03:34:54;101995.51;;;20.18;61.45
63194;BME280;49289;51.670;5.624;2022-07-23T03:36:41;102005.06;;;20.21;61.50
63194;BME280;49289;51.670;5.624;2022-07-23T03:38:28;101994.84;;;20.09;61.63
63194;BME280;49289;51.670;5.624;2022-07-23T03:40:17;102005.72;;;20.20;61.65
63194;BME280;49289;51.670;5.624;2022-07-23T03:42:05;102007.57;;;20.16;61.88
63194;BME280;49289;51.670;5.624;2022-07-23T03:43:53;101992.52;;;20.05;61.89
63194;BME280;49289;51.670;5.624;2022-07-23T03:45:41;102010.86;;;20.14;61.98
63194;BME280;49289;51.670;5.624;2022-07-23T03:47:29;102014.41;;;20.12;61.87
63194;BME280;49289;51.670;5.624;2022-07-23T03:49:17;102006.23;;;20.03;62.07
63194;BME280;49289;51.670;5.624;2022-07-23T03:51:05;102010.24;;;20.08;62.08
63194;BME280;49289;51.670;5.624;2022-07-23T03:52:52;102014.14;;;20.08;62.04
63194;BME280;49289;51.670;5.624;2022-07-23T03:54:41;102012.29;;;20.07;62.24
63194;BME280;49289;51.670;5.624;2022-07-23T03:56:28;102016.39;;;20.07;62.20
63194;BME280;49289;51.670;5.624;2022-07-23T03:58:15;102016.61;;;20.10;61.99
63194;BME280;49289;51.670;5.624;2022-07-23T04:00:03;102012.25;;;20.13;61.90
63194;BME280;49289;51.670;5.624;2022-07-23T04:01:49;102012.11;;;20.10;61.75
63194;BME280;49289;51.670;5.624;2022-07-23T04:03:36;102008.81;;;20.04;62.35
63194;BME280;49289;51.670;5.624;2022-07-23T04:05:23;101995.64;;;20.03;61.82
63194;BME280;49289;51.670;5.624;2022-07-23T04:07:10;101996.20;;;20.00;61.42
63194;BME280;49289;51.670;5.624;2022-07-23T04:08:57;102014.21;;;20.07;61.53
63194;BME280;49289;51.670;5.624;2022-07-23T04:10:44;102016.52;;;20.05;61.57
63194;BME280;49289;51.670;5.624;2022-07-23T04:12:31;102001.44;;;19.90;61.98
63194;BME280;49289;51.670;5.624;2022-07-23T04:14:18;102018.48;;;19.97;62.18
63194;BME280;49289;51.670;5.624;2022-07-23T04:16:05;102016.04;;;20.00;62.20
63194;BME280;49289;51.670;5.624;2022-07-23T04:17:53;102016.64;;;20.03;62.03
63194;BME280;49289;51.670;5.624;2022-07-23T04:19:41;102002.30;;;19.96;62.13
63194;BME280;49289;51.670;5.624;2022-07-23T04:21:29;102019.88;;;20.03;62.00
63194;BME280;49289;51.670;5.624;2022-07-23T04:23:17;102022.42;;;20.04;62.06
63194;BME280;49289;51.670;5.624;2022-07-23T04:25:05;102020.88;;;20.03;62.26
63194;BME280;49289;51.670;5.624;2022-07-23T04:26:53;101998.11;;;19.86;62.51
63194;BME280;49289;51.670;5.624;2022-07-23T04:28:41;102024.22;;;20.01;62.75
63194;BME280;49289;51.670;5.624;2022-07-23T04:30:30;102023.91;;;20.08;62.37
63194;BME280;49289;51.670;5.624;2022-07-23T04:32:18;102007.30;;;20.00;62.36
63194;BME280;49289;51.670;5.624;2022-07-23T04:34:05;102029.11;;;20.18;62.60
63194;BME280;49289;51.670;5.624;2022-07-23T04:35:52;102009.95;;;20.15;62.69
63194;BME280;49289;51.670;5.624;2022-07-23T04:37:39;102014.63;;;20.22;62.42
63194;BME280;49289;51.670;5.624;2022-07-23T04:39:26;102015.94;;;20.25;62.18
63194;BME280;49289;51.670;5.624;2022-07-23T04:41:13;102016.08;;;20.13;62.39
63194;BME280;49289;51.670;5.624;2022-07-23T04:43:00;102017.26;;;20.17;62.21
63194;BME280;49289;51.670;5.624;2022-07-23T04:44:47;102018.59;;;20.25;62.16
63194;BME280;49289;51.670;5.624;2022-07-23T04:46:34;102022.34;;;20.24;62.43
63194;BME280;49289;51.670;5.624;2022-07-23T04:48:22;102033.25;;;20.33;62.38
63194;BME280;49289;51.670;5.624;2022-07-23T04:50:11;102036.33;;;20.32;62.51
63194;BME280;49289;51.670;5.624;2022-07-23T04:51:58;102035.02;;;20.33;62.49
63194;BME280;49289;51.670;5.624;2022-07-23T04:53:45;102020.30;;;20.27;62.64
63194;BME280;49289;51.670;5.624;2022-07-23T04:55:32;102022.14;;;20.27;62.74
63194;BME280;49289;51.670;5.624;2022-07-23T04:57:19;102024.39;;;20.31;62.70
63194;BME280;49289;51.670;5.624;2022-07-23T04:59:06;102022.86;;;20.42;62.45
63194;BME280;49289;51.670;5.624;2022-07-23T05:00:53;102042.66;;;20.51;62.49
63194;BME280;49289;51.670;5.624;2022-07-23T05:02:40;102047.03;;;20.44;62.63
63194;BME280;49289;51.670;5.624;2022-07-23T05:04:27;102045.45;;;20.44;62.89
63194;BME280;49289;51.670;5.624;2022-07-23T05:06:14;102035.02;;;20.53;62.65
63194;BME280;49289;51.670;5.624;2022-07-23T05:08:03;102047.18;;;20.68;62.50
63194;BME280;49289;51.670;5.624;2022-07-23T05:09:51;102042.89;;;20.67;62.74
63194;BME280;49289;51.670;5.624;2022-07-23T05:11:39;102042.14;;;20.71;62.75
63194;BME280;49289;51.670;5.624;2022-07-23T05:13:27;102030.69;;;20.69;62.60
63194;BME280;49289;51.670;5.624;2022-07-23T05:15:14;102033.62;;;20.70;62.62
63194;BME280;49289;51.670;5.624;2022-07-23T05:17:01;102037.33;;;20.77;62.52
63194;BME280;49289;51.670;5.624;2022-07-23T05:18:48;102036.20;;;20.82;62.52
63194;BME280;49289;51.670;5.624;2022-07-23T05:20:33;102036.09;;;20.86;62.48
63194;BME280;49289;51.670;5.624;2022-07-23T05:22:20;102038.34;;;20.91;62.50
63194;BME280;49289;51.670;5.624;2022-07-23T05:24:07;102039.27;;;20.92;62.53
63194;BME280;49289;51.670;5.624;2022-07-23T05:25:54;102041.48;;;21.07;62.33
63194;BME280;49289;51.670;5.624;2022-07-23T05:27:41;102042.27;;;21.09;62.11
63194;BME280;49289;51.670;5.624;2022-07-23T05:29:29;102042.25;;;21.19;62.07
63194;BME280;49289;51.670;5.624;2022-07-23T05:31:18;102046.34;;;21.14;61.50
63194;BME280;49289;51.670;5.624;2022-07-23T05:33:06;102065.73;;;21.27;61.70
63194;BME280;49289;51.670;5.624;2022-07-23T05:34:54;102063.38;;;21.19;61.83
63194;BME280;49289;51.670;5.624;2022-07-23T05:36:41;102066.25;;;21.28;61.62
63194;BME280;49289;51.670;5.624;2022-07-23T05:38:27;102072.34;;;21.27;61.63
63194;BME280;49289;51.670;5.624;2022-07-23T05:40:15;102071.57;;;21.32;61.34
63194;BME280;49289;51.670;5.624;2022-07-23T05:42:02;102074.30;;;21.35;61.39
63194;BME280;49289;51.670;5.624;2022-07-23T05:43:49;102077.01;;;21.21;61.59
63194;BME280;49289;51.670;5.624;2022-07-23T05:45:36;102060.58;;;21.22;61.69
63194;BME280;49289;51.670;5.624;2022-07-23T05:47:23;102070.94;;;21.43;61.56
63194;BME280;49289;51.670;5.624;2022-07-23T05:49:10;102071.38;;;21.50;61.05
63194;BME280;49289;51.670;5.624;2022-07-23T05:50:58;102074.52;;;21.48;61.37
63194;BME280;49289;51.670;5.624;2022-07-23T05:52:46;102076.88;;;21.50;61.61
63194;BME280;49289;51.670;5.624;2022-07-23T05:54:35;102075.84;;;21.58;61.53
63194;BME280;49289;51.670;5.624;2022-07-23T05:56:23;102078.48;;;21.72;61.47
63194;BME280;49289;51.670;5.624;2022-07-23T05:58:11;102060.81;;;21.63;61.54
63194;BME280;49289;51.670;5.624;2022-07-23T05:59:58;102078.11;;;21.81;61.13
63194;BME280;49289;51.670;5.624;2022-07-23T06:01:45;102066.88;;;21.71;60.70
63194;BME280;49289;51.670;5.624;2022-07-23T06:03:32;102065.71;;;21.62;61.56
63194;BME280;49289;51.670;5.624;2022-07-23T06:05:19;102084.75;;;21.71;61.50
63194;BME280;49289;51.670;5.624;2022-07-23T06:07:07;102069.38;;;21.62;61.59
63194;BME280;49289;51.670;5.624;2022-07-23T06:08:56;102087.14;;;21.81;61.38
63194;BME280;49289;51.670;5.624;2022-07-23T06:10:44;102074.48;;;21.66;61.25
63194;BME280;49289;51.670;5.624;2022-07-23T06:12:32;102077.95;;;21.75;61.35
63194;BME280;49289;51.670;5.624;2022-07-23T06:14:19;102077.77;;;21.90;61.24
63194;BME280;49289;51.670;5.624;2022-07-23T06:16:07;102078.06;;;22.08;61.16
63194;BME280;49289;51.670;5.624;2022-07-23T06:17:53;102085.30;;;22.12;60.35
63194;BME280;49289;51.670;5.624;2022-07-23T06:19:40;102069.12;;;22.15;60.50
63194;BME280;49289;51.670;5.624;2022-07-23T06:21:27;102072.81;;;22.28;60.08
63194;BME280;49289;51.670;5.624;2022-07-23T06:23:14;102075.23;;;22.47;60.21
63194;BME280;49289;51.670;5.624;2022-07-23T06:25:01;102088.44;;;22.61;59.92
63194;BME280;49289;51.670;5.624;2022-07-23T06:26:48;102080.42;;;22.68;59.02
63194;BME280;49289;51.670;5.624;2022-07-23T06:28:35;102095.81;;;22.75;58.30
63194;BME280;49289;51.670;5.624;2022-07-23T06:30:24;102099.36;;;22.57;58.24
63194;BME280;49289;51.670;5.624;2022-07-23T06:32:12;102081.43;;;22.69;58.09
63194;BME280;49289;51.670;5.624;2022-07-23T06:34:00;102092.74;;;22.70;57.89
63194;BME280;49289;51.670;5.624;2022-07-23T06:35:49;102093.94;;;22.64;58.90
63194;BME280;49289;51.670;5.624;2022-07-23T06:37:37;102075.03;;;22.73;58.90
63194;BME280;49289;51.670;5.624;2022-07-23T06:39:24;102094.58;;;22.78;59.29
63194;BME280;49289;51.670;5.624;2022-07-23T06:41:11;102079.97;;;22.52;58.02
63194;BME280;49289;51.670;5.624;2022-07-23T06:42:58;102078.15;;;22.46;57.94
63194;BME280;49289;51.670;5.624;2022-07-23T06:44:45;102078.56;;;22.86;57.60
63194;BME280;49289;51.670;5.624;2022-07-23T06:46:32;102078.61;;;22.80;57.66
63194;BME280;49289;51.670;5.624;2022-07-23T06:48:19;102100.02;;;22.89;57.55
63194;BME280;49289;51.670;5.624;2022-07-23T06:50:06;102097.27;;;22.63;57.21
63194;BME280;49289;51.670;5.624;2022-07-23T06:51:53;102086.77;;;22.74;56.98
63194;BME280;49289;51.670;5.624;2022-07-23T06:53:40;102101.25;;;23.10;56.59
63194;BME280;49289;51.670;5.624;2022-07-23T06:55:28;102103.45;;;22.88;55.82
63194;BME280;49289;51.670;5.624;2022-07-23T06:57:16;102105.20;;;23.03;55.79
63194;BME280;49289;51.670;5.624;2022-07-23T06:59:04;102106.86;;;23.10;55.18
63194;BME280;49289;51.670;5.624;2022-07-23T07:00:52;102100.38;;;23.06;54.72
63194;BME280;49289;51.670;5.624;2022-07-23T07:02:40;102083.86;;;23.13;55.17
63194;BME280;49289;51.670;5.624;2022-07-23T07:04:28;102095.38;;;23.36;54.13
63194;BME280;49289;51.670;5.624;2022-07-23T07:06:17;102084.25;;;23.38;54.15
63194;BME280;49289;51.670;5.624;2022-07-23T07:08:05;102080.94;;;23.52;53.88
63194;BME280;49289;51.670;5.624;2022-07-23T07:09:54;102097.87;;;23.62;53.11
63194;BME280;49289;51.670;5.624;2022-07-23T07:11:41;102082.20;;;23.34;55.10
63194;BME280;49289;51.670;5.624;2022-07-23T07:13:28;102083.75;;;23.21;53.96
63194;BME280;49289;51.670;5.624;2022-07-23T07:15:15;102098.81;;;23.25;54.54
63194;BME280;49289;51.670;5.624;2022-07-23T07:17:03;102097.34;;;23.48;52.61
63194;BME280;49289;51.670;5.624;2022-07-23T07:18:51;102102.98;;;22.83;54.17
63194;BME280;49289;51.670;5.624;2022-07-23T07:20:39;102085.53;;;22.47;53.20
63194;BME280;49289;51.670;5.624;2022-07-23T07:22:27;102056.55;;;22.66;53.10
63194;BME280;49289;51.670;5.624;2022-07-23T07:24:16;102089.39;;;23.58;51.50
63194;BME280;49289;51.670;5.624;2022-07-23T07:26:03;102099.58;;;23.99;51.71
63194;BME280;49289;51.670;5.624;2022-07-23T07:27:51;102092.73;;;23.79;50.67
63194;BME280;49289;51.670;5.624;2022-07-23T07:29:39;102086.77;;;23.86;50.47
63194;BME280;49289;51.670;5.624;2022-07-23T07:31:27;102095.20;;;24.10;50.55
63194;BME280;49289;51.670;5.624;2022-07-23T07:33:15;102093.94;;;24.34;50.46
63194;BME280;49289;51.670;5.624;2022-07-23T07:35:03;102087.16;;;23.55;54.01
63194;BME280;49289;51.670;5.624;2022-07-23T07:36:51;102092.85;;;23.35;53.16
63194;BME280;49289;51.670;5.624;2022-07-23T07:38:39;102094.29;;;24.10;52.04
63194;BME280;49289;51.670;5.624;2022-07-23T07:40:27;102090.88;;;24.18;50.23
63194;BME280;49289;51.670;5.624;2022-07-23T07:42:16;102080.98;;;24.18;49.46
63194;BME280;49289;51.670;5.624;2022-07-23T07:44:03;102086.08;;;24.26;51.05
63194;BME280;49289;51.670;5.624;2022-07-23T07:45:50;102086.99;;;23.43;50.73
63194;BME280;49289;51.670;5.624;2022-07-23T07:47:37;102088.26;;;24.00;50.03
63194;BME280;49289;51.670;5.624;2022-07-23T07:49:24;102105.26;;;23.95;54.46
63194;BME280;49289;51.670;5.624;2022-07-23T07:51:11;102093.32;;;23.90;51.30
63194;BME280;49289;51.670;5.624;2022-07-23T07:52:58;102114.86;;;24.42;50.11
63194;BME280;49289;51.670;5.624;2022-07-23T07:54:45;102103.61;;;24.01;48.89
63194;BME280;49289;51.670;5.624;2022-07-23T07:56:32;102103.91;;;23.24;53.69
63194;BME280;49289;51.670;5.624;2022-07-23T07:58:20;102112.63;;;23.55;50.61
63194;BME280;49289;51.670;5.624;2022-07-23T08:00:09;102108.52;;;24.05;49.34
63194;BME280;49289;51.670;5.624;2022-07-23T08:01:56;102110.03;;;24.31;48.82
63194;BME280;49289;51.670;5.624;2022-07-23T08:03:43;102125.30;;;23.71;51.35
63194;BME280;49289;51.670;5.624;2022-07-23T08:05:31;102103.87;;;24.15;49.44
63194;BME280;49289;51.670;5.624;2022-07-23T08:07:20;102104.74;;;24.65;49.33
63194;BME280;49289;51.670;5.624;2022-07-23T08:09:08;102107.20;;;24.79;48.29
63194;BME280;49289;51.670;5.624;2022-07-23T08:10:55;102119.02;;;24.34;51.52
63194;BME280;49289;51.670;5.624;2022-07-23T08:12:50;102119.72;;;24.02;50.60
63194;BME280;49289;51.670;5.624;2022-07-23T08:14:37;102115.48;;;24.29;48.70
63194;BME280;49289;51.670;5.624;2022-07-23T08:16:26;102120.12;;;24.37;48.61
63194;BME280;49289;51.670;5.624;2022-07-23T08:18:15;102119.73;;;24.62;48.22
63194;BME280;49289;51.670;5.624;2022-07-23T08:20:03;102118.95;;;24.54;47.79
63194;BME280;49289;51.670;5.624;2022-07-23T08:21:50;102110.56;;;24.36;47.57
63194;BME280;49289;51.670;5.624;2022-07-23T08:23:37;102125.12;;;24.20;47.88
63194;BME280;49289;51.670;5.624;2022-07-23T08:25:26;102123.68;;;24.19;48.83
63194;BME280;49289;51.670;5.624;2022-07-23T08:27:12;102114.22;;;24.21;48.44
63194;BME280;49289;51.670;5.624;2022-07-23T08:28:59;102127.68;;;24.53;50.37
63194;BME280;49289;51.670;5.624;2022-07-23T08:30:46;102114.34;;;24.25;49.36
63194;BME280;49289;51.670;5.624;2022-07-23T08:32:33;102115.31;;;24.44;50.07
63194;BME280;49289;51.670;5.624;2022-07-23T08:34:20;102112.23;;;24.00;49.29
63194;BME280;49289;51.670;5.624;2022-07-23T08:36:07;102114.76;;;24.11;49.85
63194;BME280;49289;51.670;5.624;2022-07-23T08:37:56;102130.82;;;24.21;49.94
63194;BME280;49289;51.670;5.624;2022-07-23T08:39:44;102119.55;;;24.58;48.36
63194;BME280;49289;51.670;5.624;2022-07-23T08:41:33;102132.22;;;24.54;49.03
63194;BME280;49289;51.670;5.624;2022-07-23T08:43:22;102123.40;;;24.75;47.97
63194;BME280;49289;51.670;5.624;2022-07-23T08:45:08;102136.51;;;24.59;48.03
63194;BME280;49289;51.670;5.624;2022-07-23T08:46:56;102137.09;;;24.77;48.77
63194;BME280;49289;51.670;5.624;2022-07-23T08:48:45;102136.98;;;24.98;47.43
63194;BME280;49289;51.670;5.624;2022-07-23T08:50:33;102123.04;;;24.45;47.82
63194;BME280;49289;51.670;5.624;2022-07-23T08:52:20;102142.03;;;24.55;48.42
63194;BME280;49289;51.670;5.624;2022-07-23T08:54:09;102130.09;;;24.33;48.18
63194;BME280;49289;51.670;5.624;2022-07-23T08:55:56;102122.70;;;24.07;47.88
63194;BME280;49289;51.670;5.624;2022-07-23T08:57:43;102143.44;;;24.46;48.05
63194;BME280;49289;51.670;5.624;2022-07-23T08:59:30;102131.64;;;24.81;47.80
63194;BME280;49289;51.670;5.624;2022-07-23T09:01:17;102125.97;;;24.44;47.49
63194;BME280;49289;51.670;5.624;2022-07-23T09:03:04;102126.98;;;24.43;47.87
63194;BME280;49289;51.670;5.624;2022-07-23T09:04:51;102140.02;;;24.40;47.36
63194;BME280;49289;51.670;5.624;2022-07-23T09:06:38;102132.88;;;24.71;46.28
63194;BME280;49289;51.670;5.624;2022-07-23T09:08:26;102148.17;;;24.79;46.34
63194;BME280;49289;51.670;5.624;2022-07-23T09:10:17;102149.59;;;25.22;46.03
63194;BME280;49289;51.670;5.624;2022-07-23T09:12:14;102147.64;;;24.91;46.25
63194;BME280;49289;51.670;5.624;2022-07-23T09:14:01;102144.27;;;24.44;45.96
63194;BME280;49289;51.670;5.624;2022-07-23T09:15:54;102146.06;;;24.72;46.75
63194;BME280;49289;51.670;5.624;2022-07-23T09:17:42;102130.88;;;25.39;45.70
63194;BME280;49289;51.670;5.624;2022-07-23T09:19:32;102140.16;;;25.45;45.67
63194;BME280;49289;51.670;5.624;2022-07-23T09:21:25;102123.98;;;25.41;46.05
63194;BME280;49289;51.670;5.624;2022-07-23T09:23:13;102129.23;;;25.79;45.94